createdAt,value
2018-09-03T00:02:04.974Z,8.27
2018-09-03T00:06:55.874Z,8.17
2018-09-03T00:11:46.873Z,7.87
2018-09-03T00:16:37.794Z,7.93
2018-09-03T00:21:28.730Z,7.97
2018-09-03T00:26:20.360Z,8.03
2018-09-03T00:31:11.262Z,9.33
2018-09-03T00:41:36.024Z,8.80
2018-09-03T00:52:00.628Z,8.30
2018-09-03T00:56:52.262Z,8.07
2018-09-03T01:01:43.166Z,8.03
2018-09-03T01:06:34.083Z,8.30
2018-09-03T01:11:27.188Z,9.07
2018-09-03T01:16:18.079Z,9.13
2018-09-03T01:21:08.964Z,8.33
2018-09-03T01:25:59.856Z,7.80
2018-09-03T01:30:50.786Z,9.13
2018-09-03T01:35:41.686Z,9.47
2018-09-03T01:40:32.576Z,8.10
2018-09-03T01:45:23.474Z,8.37
2018-09-03T01:50:14.380Z,9.57
2018-09-03T01:55:06.997Z,9.30
2018-09-03T01:59:58.417Z,9.07
2018-09-03T02:04:49.791Z,9.77
2018-09-03T02:09:40.695Z,9.27
2018-09-03T02:14:32.477Z,10.57
2018-09-03T02:19:23.375Z,9.27
2018-09-03T02:24:14.304Z,10.30
2018-09-03T02:29:05.827Z,10.13
2018-09-03T02:33:57.626Z,9.13
2018-09-03T02:38:48.665Z,10.83
2018-09-03T02:43:39.568Z,9.30
2018-09-03T02:48:32.012Z,11.43
2018-09-03T02:53:23.353Z,9.57
2018-09-03T02:58:14.253Z,11.00
2018-09-03T03:03:05.581Z,10.20
2018-09-03T03:07:56.515Z,9.50
2018-09-03T03:12:47.557Z,10.13
2018-09-03T03:17:38.484Z,10.37
2018-09-03T03:22:29.375Z,15.37
2018-09-03T03:27:20.753Z,10.20
2018-09-03T03:32:12.391Z,9.00
2018-09-03T03:37:03.283Z,9.90
2018-09-03T03:41:54.961Z,10.67
2018-09-03T03:46:45.868Z,9.60
2018-09-03T03:51:36.772Z,9.73
2018-09-03T03:56:27.681Z,10.30
2018-09-03T04:01:19.821Z,9.33
2018-09-03T04:06:11.479Z,10.03
2018-09-03T04:11:02.441Z,10.67
2018-09-03T04:15:53.357Z,9.93
2018-09-03T04:20:44.292Z,11.17
2018-09-03T04:25:35.220Z,10.23
2018-09-03T04:30:26.141Z,10.93
2018-09-03T04:35:17.132Z,12.70
2018-09-03T04:40:08.899Z,9.70
2018-09-03T04:44:59.861Z,10.40
2018-09-03T04:49:51.514Z,10.07
2018-09-03T04:54:42.496Z,9.80
2018-09-03T04:59:33.415Z,9.20
2018-09-03T05:04:25.760Z,9.00
2018-09-03T05:09:16.664Z,10.17
2018-09-03T05:14:09.160Z,10.70
2018-09-03T05:19:01.909Z,11.53
2018-09-03T05:23:53.960Z,11.10
2018-09-03T05:28:44.860Z,11.40
2018-09-03T05:33:36.642Z,10.17
2018-09-03T05:38:28.355Z,10.30
2018-09-03T05:43:19.698Z,9.97
2018-09-03T05:48:10.512Z,10.37
2018-09-03T05:53:03.311Z,10.70
2018-09-03T05:57:54.526Z,10.43
2018-09-03T06:02:45.488Z,10.00
2018-09-03T06:07:36.392Z,8.97
2018-09-03T06:12:27.325Z,9.17
2018-09-03T06:17:19.805Z,10.00
2018-09-03T06:22:10.703Z,10.03
2018-09-03T06:27:02.659Z,9.50
2018-09-03T06:31:53.564Z,10.20
2018-09-03T06:36:44.471Z,9.27
2018-09-03T06:41:37.662Z,9.80
2018-09-03T06:46:28.576Z,9.53
2018-09-03T06:51:21.696Z,9.57
2018-09-03T06:56:12.603Z,9.63
2018-09-03T07:01:03.493Z,8.80
2018-09-03T07:05:54.407Z,9.27
2018-09-03T07:10:45.331Z,8.70
2018-09-03T07:15:39.361Z,8.00
2018-09-03T07:20:31.961Z,8.90
2018-09-03T07:25:22.980Z,8.50
2018-09-03T07:30:14.611Z,8.90
2018-09-03T07:35:05.580Z,8.50
2018-09-03T07:39:56.472Z,8.70
2018-09-03T07:44:47.409Z,8.50
2018-09-03T07:49:38.359Z,8.97
2018-09-03T07:54:29.276Z,9.43
2018-09-03T07:59:20.201Z,10.57
2018-09-03T08:04:11.106Z,9.00
2018-09-03T08:09:02.033Z,9.50
2018-09-03T08:13:54.724Z,9.23
2018-09-03T08:18:45.623Z,9.13
2018-09-03T08:23:36.517Z,9.70
2018-09-03T08:28:27.516Z,10.37
2018-09-03T08:33:19.209Z,10.30
2018-09-03T08:38:10.853Z,9.60
2018-09-03T08:43:01.793Z,9.57
2018-09-03T08:47:52.688Z,9.63
2018-09-03T08:52:43.617Z,9.70
2018-09-03T08:57:34.557Z,9.33
2018-09-03T09:02:26.193Z,9.10
2018-09-03T09:07:17.116Z,10.03
2018-09-03T09:12:08.094Z,9.90
2018-09-03T09:16:59.001Z,10.23
2018-09-03T09:21:49.884Z,10.50
2018-09-03T09:26:40.800Z,9.67
2018-09-03T09:31:31.751Z,10.63
2018-09-03T09:36:22.640Z,10.53
2018-09-03T09:41:13.553Z,11.47
2018-09-03T09:46:04.450Z,12.80
2018-09-03T09:50:56.097Z,12.23
2018-09-03T09:55:46.993Z,12.90
2018-09-03T10:00:38.684Z,12.00
2018-09-03T10:05:29.613Z,12.00
2018-09-03T10:10:20.522Z,12.27
2018-09-03T10:15:11.452Z,11.23
2018-09-03T10:20:02.364Z,12.03
2018-09-03T10:24:54.044Z,11.47
2018-09-03T10:29:44.932Z,12.00
2018-09-03T10:34:36.645Z,11.77
2018-09-03T10:39:27.553Z,12.33
2018-09-03T10:44:18.440Z,13.00
2018-09-03T10:49:09.338Z,13.87
2018-09-03T10:54:00.232Z,17.00
2018-09-03T10:58:51.145Z,13.47
2018-09-03T11:03:42.781Z,14.53
2018-09-03T11:08:33.688Z,14.53
2018-09-03T11:13:24.584Z,14.10
2018-09-03T11:18:15.493Z,12.87
2018-09-03T11:23:06.459Z,14.47
2018-09-03T11:27:57.351Z,13.67
2018-09-03T11:32:48.287Z,14.90
2018-09-03T11:37:39.190Z,13.63
2018-09-03T11:42:30.077Z,13.47
2018-09-03T11:47:21.021Z,13.57
2018-09-03T11:52:11.931Z,14.67
2018-09-03T11:57:03.564Z,13.03
2018-09-03T12:01:54.504Z,13.40
2018-09-03T12:06:45.457Z,12.87
2018-09-03T12:11:36.324Z,13.17
2018-09-03T12:16:27.216Z,13.50
2018-09-03T12:21:18.145Z,12.40
2018-09-03T12:26:09.786Z,13.30
2018-09-03T12:31:00.685Z,13.87
2018-09-03T12:35:52.340Z,12.60
2018-09-03T12:40:43.224Z,12.13
2018-09-03T12:45:34.852Z,13.40
2018-09-03T12:50:25.742Z,12.60
2018-09-03T12:55:16.651Z,11.70
2018-09-03T13:00:08.833Z,11.50
2018-09-03T13:05:00.117Z,10.67
2018-09-03T13:09:51.012Z,12.00
2018-09-03T13:14:41.937Z,11.33
2018-09-03T13:19:32.893Z,11.77
2018-09-03T13:24:23.775Z,12.67
2018-09-03T13:29:14.688Z,12.40
2018-09-03T13:34:05.576Z,13.97
2018-09-03T13:38:56.485Z,13.17
2018-09-03T13:43:47.380Z,13.10
2018-09-03T13:48:38.306Z,13.30
2018-09-03T13:53:29.260Z,12.30
2018-09-03T13:58:20.152Z,13.43
2018-09-03T14:03:11.803Z,13.27
2018-09-03T14:08:02.751Z,13.00
2018-09-03T14:12:53.681Z,12.63
2018-09-03T14:17:45.317Z,12.63
2018-09-03T14:22:36.787Z,12.73
2018-09-03T14:27:28.433Z,14.00
2018-09-03T14:32:21.772Z,12.97
2018-09-03T14:37:12.669Z,12.37
2018-09-03T14:42:03.701Z,11.83
2018-09-03T14:46:56.097Z,11.67
2018-09-03T14:51:48.114Z,13.03
2018-09-03T14:56:39.039Z,12.40
2018-09-03T15:01:31.653Z,11.73
2018-09-03T15:06:23.326Z,13.80
2018-09-03T15:11:14.228Z,11.87
2018-09-03T15:16:05.153Z,11.90
2018-09-03T15:20:56.056Z,13.23
2018-09-03T15:25:46.973Z,12.27
2018-09-03T15:30:38.321Z,12.70
2018-09-03T15:35:29.240Z,12.40
2018-09-03T15:40:20.877Z,12.17
2018-09-03T15:45:11.782Z,12.37
2018-09-03T15:50:02.741Z,11.90
2018-09-03T15:54:53.649Z,11.73
2018-09-03T15:59:44.580Z,12.40
2018-09-03T16:04:39.032Z,11.77
2018-09-03T16:09:30.281Z,11.57
2018-09-03T16:14:21.176Z,11.43
2018-09-03T16:19:12.080Z,11.33
2018-09-03T16:24:03.287Z,11.57
2018-09-03T16:28:54.181Z,11.83
2018-09-03T16:33:45.113Z,12.13
2018-09-03T16:38:38.188Z,11.10
2018-09-03T16:43:29.889Z,11.10
2018-09-03T16:48:20.792Z,11.43
2018-09-03T16:53:12.714Z,12.07
2018-09-03T16:58:05.181Z,12.63
2018-09-03T17:02:56.093Z,11.97
2018-09-03T17:07:47.824Z,11.93
2018-09-03T17:12:38.684Z,10.97
2018-09-03T17:17:29.589Z,11.40
2018-09-03T17:22:20.491Z,10.90
2018-09-03T17:27:12.649Z,12.37
2018-09-03T17:32:05.045Z,12.13
2018-09-03T17:36:55.960Z,11.67
2018-09-03T17:41:46.883Z,10.70
2018-09-03T17:46:37.824Z,10.40
2018-09-03T17:51:28.741Z,11.43
2018-09-03T17:56:20.414Z,11.00
2018-09-03T18:01:12.076Z,11.80
2018-09-03T18:06:05.018Z,11.07
2018-09-03T18:10:56.444Z,11.60
2018-09-03T18:15:47.360Z,10.17
2018-09-03T18:20:38.261Z,10.70
2018-09-03T18:25:29.163Z,10.63
2018-09-03T18:30:20.182Z,9.67
2018-09-03T18:35:11.722Z,8.90
2018-09-03T18:40:02.864Z,9.30
2018-09-03T18:44:53.765Z,9.50
2018-09-03T18:49:44.657Z,10.03
2018-09-03T18:54:36.354Z,11.10
2018-09-03T18:59:27.990Z,9.40
2018-09-03T19:04:18.873Z,9.77
2018-09-03T19:09:13.357Z,8.43
2018-09-03T19:14:05.039Z,8.80
2018-09-03T19:18:56.736Z,8.30
2018-09-03T19:23:47.627Z,8.40
2018-09-03T19:28:38.558Z,8.33
2018-09-03T19:33:30.197Z,9.63
2018-09-03T19:38:21.128Z,8.50
2018-09-03T19:43:12.853Z,9.07
2018-09-03T19:48:03.827Z,9.03
2018-09-03T19:52:55.521Z,8.90
2018-09-03T19:57:46.508Z,7.70
2018-09-03T20:02:38.321Z,10.97
2018-09-03T20:07:29.296Z,8.13
2018-09-03T20:12:22.089Z,8.23
2018-09-03T20:17:13.126Z,9.03
2018-09-03T20:22:04.029Z,10.47
2018-09-03T20:26:55.027Z,9.20
2018-09-03T20:31:45.964Z,8.17
2018-09-03T20:36:37.670Z,8.17
2018-09-03T20:41:28.637Z,8.43
2018-09-03T20:46:19.614Z,8.00
2018-09-03T20:51:12.403Z,8.10
2018-09-03T20:56:04.089Z,10.23
2018-09-03T21:00:55.785Z,8.80
2018-09-03T21:05:48.428Z,8.53
2018-09-03T21:10:39.483Z,8.70
2018-09-03T21:15:30.440Z,7.63
2018-09-03T21:20:22.105Z,8.80
2018-09-03T21:25:13.144Z,8.47
2018-09-03T21:30:04.090Z,8.33
2018-09-03T21:34:56.155Z,8.57
2018-09-03T21:39:47.049Z,9.10
2018-09-03T21:44:40.810Z,9.20
2018-09-03T21:49:31.720Z,7.43
2018-09-03T21:54:22.651Z,8.33
2018-09-03T21:59:13.555Z,7.90
2018-09-03T22:04:04.443Z,7.97
2018-09-03T22:08:55.371Z,7.43
2018-09-03T22:13:46.258Z,7.83
2018-09-03T22:18:37.176Z,7.70
2018-09-03T22:23:28.107Z,7.57
2018-09-03T22:28:19.028Z,7.27
2018-09-03T22:33:09.937Z,6.40
2018-09-03T22:38:00.880Z,6.87
2018-09-03T22:42:51.763Z,6.60
2018-09-03T22:47:42.684Z,6.60
2018-09-03T22:52:33.596Z,6.63
2018-09-03T22:57:24.503Z,7.10
2018-09-03T23:02:16.154Z,6.07
2018-09-03T23:07:07.064Z,7.00
2018-09-03T23:11:57.977Z,6.17
2018-09-03T23:16:48.872Z,6.73
2018-09-03T23:21:39.764Z,7.87
2018-09-03T23:26:30.654Z,6.10
2018-09-03T23:31:21.550Z,6.70
2018-09-03T23:36:12.444Z,6.43
2018-09-03T23:41:04.073Z,6.73
2018-09-03T23:45:54.984Z,5.60
2018-09-03T23:50:45.904Z,6.20
2018-09-03T23:55:36.800Z,6.40
